Flight Track Log - Related Links

Times and Time Zones

All times are in EST time to prevent confusion due to time zone crossing. See the DAL3974 flight status page for this flight to view local times or setup timezone preferences in your user account.


Time Position Orientation Groundspeed Altitude Reporting Facility
EST Latitude Longitude Course Direction KTS MPH feet Rate Location/Type
Mon 05:27:03 PM 42.9678 -83.7819 291° West 128 147 2,200  Level Cleveland Center
Mon 05:28:05 PM 42.9856 -83.8442 291° West 188 216 4,700 2,468 Climbing Cleveland Center
Mon 05:29:07 PM 43.0278 -83.9067 313° West 233 268 7,300 2,565 Climbing Cleveland Center
Mon 05:30:09 PM 43.0603 -83.9900 298° West 233 268 10,000 1,452 Climbing Cleveland Center
Mon 05:31:11 PM 43.0969 -84.0839 298° West 284 327 10,300 968 Climbing Cleveland Center
Mon 05:32:13 PM 43.1392 -84.1956 297° West 324 373 12,000 1,645 Climbing Cleveland Center
Mon 05:33:15 PM 43.1928 -84.2956 306° West 328 377 13,700 1,548 Climbing Cleveland Center
Mon 05:34:17 PM 43.2481 -84.4047 305° West 329 379 15,200 1,258 Climbing Cleveland Center
Mon 05:35:19 PM 43.2900 -84.5194 297° West 337 388 16,300 1,113 Climbing Cleveland Center
Mon 05:36:21 PM 43.3328 -84.6342 297° West 340 391 17,500 1,065 Climbing Cleveland Center
Mon 05:37:23 PM 43.3750 -84.7497 297° West 339 390 18,500 1,065 Climbing Cleveland Center
Mon 05:38:25 PM 43.4256 -84.8864 297° West 337 388 19,700 1,065 Climbing Cleveland Center
Mon 05:39:27 PM 43.4672 -85.0025 296° West 339 390 20,700 968 Climbing Cleveland Center
Mon 05:40:29 PM 43.5081 -85.1150 297° West 332 382 21,700 968 Climbing Cleveland Center
Mon 05:41:31 PM 43.5489 -85.2264 297° West 328 377 22,700 968 Climbing Cleveland Center
Mon 05:42:33 PM 43.5883 -85.3381 296° West 325 374 23,700 1,065 Climbing Cleveland Center
Mon 05:43:35 PM 43.6353 -85.4694 296° West 320 368 24,900 1,065 Climbing Cleveland Center
Mon 05:44:37 PM 43.6656 -85.5808 291° West 313 360 25,900 968 Climbing Cleveland Center
Mon 05:45:39 PM 43.6922 -85.6939 288° West 311 358 26,900 968 Climbing Cleveland Center
Mon 05:46:41 PM 43.7192 -85.8019 289° West 301 346 27,900 532 Climbing Cleveland Center
Mon 05:47:43 PM 43.7453 -85.9142 288° West 306 352 28,000 48 Climbing Cleveland Center
Mon 05:48:45 PM 43.7772 -86.0550 287° West 318 366 28,000  Level Cleveland Center
Mon 05:49:47 PM 43.8064 -86.1761 288° West 328 377 28,000  Level Cleveland Center
Mon 05:50:58 PM 43.8400 -86.3253 287° West 337 388 28,000  Level Minneapolis Center
Mon 05:51:59 PM 43.8694 -86.4500 288° West 341 392 28,000  Level Minneapolis Center
Mon 05:53:01 PM 43.8986 -86.5747 288° West 342 394 28,000  Level Minneapolis Center
Mon 05:54:02 PM 43.9275 -86.7017 288° West 345 397 28,000  Level Minneapolis Center
Mon 05:55:04 PM 43.9558 -86.8289 287° West 347 399 28,000  Level Minneapolis Center
Mon 05:56:05 PM 43.9847 -86.9558 288° West 346 398 28,000  Level Minneapolis Center
Mon 05:57:07 PM 44.0136 -87.0847 287° West 351 404 28,000  Level Minneapolis Center
Mon 05:58:08 PM 44.0486 -87.2406 287° West 352 405 28,000  Level Minneapolis Center
Mon 05:59:10 PM 44.0772 -87.3792 286° West 351 404 28,000  Level Minneapolis Center
Mon 06:00:12 PM 44.1069 -87.5106 288° West 355 409 28,000  Level Minneapolis Center
Mon 06:01:13 PM 44.1361 -87.6442 287° West 360 414 28,000  Level Minneapolis Center
Mon 06:02:15 PM 44.1653 -87.7781 287° West 362 417 28,000  Level Minneapolis Center
Mon 06:03:17 PM 44.1939 -87.9119 287° West 363 418 28,000  Level Minneapolis Center
Mon 06:04:18 PM 44.2231 -88.0458 287° West 363 418 28,000  Level Minneapolis Center
Mon 06:05:20 PM 44.2522 -88.1803 287° West 364 419 28,000  Level Minneapolis Center
Mon 06:06:21 PM 44.2861 -88.3417 286° West 364 419 28,000  Level Minneapolis Center
Mon 06:07:23 PM 44.3144 -88.4778 286° West 367 422 28,000  Level Minneapolis Center
Mon 06:08:25 PM 44.3433 -88.6133 287° West 367 422 28,000  Level Minneapolis Center
Mon 06:09:26 PM 44.3711 -88.7481 286° West 365 420 28,000  Level Minneapolis Center
Mon 06:10:28 PM 44.4006 -88.8839 287° West 366 421 28,000  Level Minneapolis Center
Mon 06:11:30 PM 44.4269 -89.0206 285° West 366 421 28,000  Level Minneapolis Center
Mon 06:12:31 PM 44.4544 -89.1556 286° West 364 419 28,000  Level Minneapolis Center
Mon 06:13:33 PM 44.4875 -89.3189 286° West 365 420 28,000  Level Minneapolis Center
Mon 06:14:34 PM 44.5153 -89.4586 286° West 369 425 28,000  Level Minneapolis Center
Mon 06:15:36 PM 44.5428 -89.5978 286° West 372 428 28,000  Level Minneapolis Center
Mon 06:16:38 PM 44.5703 -89.7356 286° West 370 426 28,000  Level Minneapolis Center
Mon 06:17:39 PM 44.5986 -89.8736 286° West 370 426 28,000  Level Minneapolis Center
Mon 06:18:41 PM 44.6258 -90.0100 286° West 367 422 28,000  Level Minneapolis Center
Mon 06:19:42 PM 44.6533 -90.1497 286° West 370 426 28,000  Level Minneapolis Center
Mon 06:20:44 PM 44.6861 -90.3150 286° West 369 425 28,000  Level Minneapolis Center
Mon 06:21:46 PM 44.7128 -90.4550 285° West 371 427 28,000 -244 Level Minneapolis Center
Mon 06:22:47 PM 44.7358 -90.5786 285° West 373 429 27,500 -537 Descending Minneapolis Center
Mon 06:23:49 PM 44.7683 -90.7514 285° West 381 438 26,900 -532 Descending Minneapolis Center
Mon 06:24:51 PM 44.7958 -90.8961 285° West 384 442 26,400 -537 Descending Minneapolis Center
Mon 06:25:52 PM 44.8239 -91.0403 285° West 384 442 25,800 -585 Descending Minneapolis Center
Mon 06:26:54 PM 44.8514 -91.1847 285° West 382 440 25,200 -629 Descending Minneapolis Center
Mon 06:27:56 PM 44.8753 -91.3292 283° West 382 440 24,500 -829 Descending Minneapolis Center
Mon 06:28:57 PM 44.9025 -91.4711 285° West 378 435 23,500 -1,366 Descending Minneapolis Center
Mon 06:29:59 PM 44.9283 -91.6133 284° West 376 433 21,700 -2,226 Descending Minneapolis Center
Mon 06:31:01 PM 44.9592 -91.7814 285° West 371 427 18,900 -2,244 Descending Minneapolis Center
Mon 06:32:02 PM 44.9839 -91.9164 285° West 360 414 17,100 -2,000 Descending Minneapolis Center
Mon 06:33:04 PM 45.0081 -92.0511 284° West 356 410 14,800 -2,226 Descending Minneapolis Center
Mon 06:34:06 PM 45.0314 -92.1883 284° West 352 405 12,500 -1,854 Descending Minneapolis Center
Mon 06:35:07 PM 45.0436 -92.3203 278° West 355 409 11,000 -829 Descending Minneapolis Center
Mon 06:36:09 PM 45.0092 -92.4539 250° West 363 418 10,800 -823 Descending Minneapolis Center
Mon 06:37:11 PM 44.9492 -92.5725 234° Southwest 295 339 9,300 -1,694 Descending Minneapolis Center
Mon 06:38:13 PM 44.8931 -92.6433 222° Southwest 279 321 7,300 -1,122 Descending Minneapolis Center
Mon 06:39:14 PM 44.8272 -92.6892 206° Southwest 265 305 7,000 -634 Descending Minneapolis Center
Mon 06:40:16 PM 44.7822 -92.7497 224° Southwest 239 275 6,000 -919 Descending Minneapolis Center
Mon 06:41:18 PM 44.7961 -92.8367 283° West 230 265 5,100 -726 Descending Minneapolis Center
Mon 06:42:20 PM 44.8078 -92.9211 281° West 223 257 4,500 -683 Descending Minneapolis Center
Mon 06:43:21 PM 44.8161 -92.9869 280° West 173 199 3,700 -732 Descending Minneapolis Center
Mon 06:44:23 PM 44.8228 -93.0625 277° West 164 189 3,000 -629 Descending Minneapolis Center
Mon 06:45:25 PM 44.8450 -93.1111 303° West 149 171 2,400 -677 Descending Minneapolis Center
Mon 06:46:27 PM 44.8628 -93.1514 302° West 125 144 1,600 -774 Descending Minneapolis Center
Mon 06:48:00 PM 44.8667 -93.2167 245° Southwest  Level FlightAware Approximate
Mon 06:55:00 PM 44.8820 -93.2218 245° Southwest  Level Estimated

Login

Don't have an account? Register now (free) for customized features, flight alerts, and more!